sensor_id;sensor_type;location;lat;lon;timestamp;pressure;altitude;pressure_sealevel;temperature;humidity
79481;BME280;68944;48.262;14.208;2024-03-25T00:02:08;97422.13;;;3.06;100.00
79481;BME280;68944;48.262;14.208;2024-03-25T00:04:34;97438.59;;;3.06;100.00
79481;BME280;68944;48.262;14.208;2024-03-25T00:07:01;97429.78;;;3.07;100.00
79481;BME280;68944;48.262;14.208;2024-03-25T00:09:27;97438.84;;;3.12;100.00
79481;BME280;68944;48.262;14.208;2024-03-25T00:11:53;97441.94;;;3.22;100.00
79481;BME280;68944;48.262;14.208;2024-03-25T00:14:21;97432.06;;;3.24;100.00
79481;BME280;68944;48.262;14.208;2024-03-25T00:16:47;97437.13;;;3.26;100.00
79481;BME280;68944;48.262;14.208;2024-03-25T00:19:12;97432.28;;;3.29;100.00
79481;BME280;68944;48.262;14.208;2024-03-25T00:21:38;97419.22;;;3.36;100.00
79481;BME280;68944;48.262;14.208;2024-03-25T00:24:04;97426.69;;;3.39;100.00
79481;BME280;68944;48.262;14.208;2024-03-25T00:26:29;97418.88;;;3.46;100.00
79481;BME280;68944;48.262;14.208;2024-03-25T00:28:55;97426.72;;;3.46;100.00
79481;BME280;68944;48.262;14.208;2024-03-25T00:31:21;97439.66;;;3.55;100.00
79481;BME280;68944;48.262;14.208;2024-03-25T00:33:46;97431.63;;;3.63;100.00
79481;BME280;68944;48.262;14.208;2024-03-25T00:36:12;97417.34;;;3.72;100.00
79481;BME280;68944;48.262;14.208;2024-03-25T00:38:37;97419.75;;;3.67;100.00
79481;BME280;68944;48.262;14.208;2024-03-25T00:41:03;97411.28;;;3.65;100.00
79481;BME280;68944;48.262;14.208;2024-03-25T00:43:29;97422.56;;;3.66;100.00
79481;BME280;68944;48.262;14.208;2024-03-25T00:45:55;97421.56;;;3.67;100.00
79481;BME280;68944;48.262;14.208;2024-03-25T00:48:22;97419.75;;;3.67;100.00
79481;BME280;68944;48.262;14.208;2024-03-25T00:50:48;97421.97;;;3.63;100.00
79481;BME280;68944;48.262;14.208;2024-03-25T00:53:14;97438.47;;;3.64;100.00
79481;BME280;68944;48.262;14.208;2024-03-25T00:55:40;97422.38;;;3.67;100.00
79481;BME280;68944;48.262;14.208;2024-03-25T00:58:06;97414.47;;;3.60;100.00
79481;BME280;68944;48.262;14.208;2024-03-25T01:00:32;97417.47;;;3.57;100.00
79481;BME280;68944;48.262;14.208;2024-03-25T01:02:57;97417.47;;;3.57;100.00
79481;BME280;68944;48.262;14.208;2024-03-25T01:05:23;97421.34;;;3.55;100.00
79481;BME280;68944;48.262;14.208;2024-03-25T01:07:48;97417.09;;;3.53;100.00
79481;BME280;68944;48.262;14.208;2024-03-25T01:10:16;97418.47;;;3.49;100.00
79481;BME280;68944;48.262;14.208;2024-03-25T01:12:42;97430.16;;;3.47;100.00
79481;BME280;68944;48.262;14.208;2024-03-25T01:15:07;97417.88;;;3.47;100.00
79481;BME280;68944;48.262;14.208;2024-03-25T01:17:36;97424.31;;;3.45;100.00
79481;BME280;68944;48.262;14.208;2024-03-25T01:20:01;97416.66;;;3.43;100.00
79481;BME280;68944;48.262;14.208;2024-03-25T01:22:28;97414.22;;;3.41;100.00
79481;BME280;68944;48.262;14.208;2024-03-25T01:24:53;97414.22;;;3.41;100.00
79481;BME280;68944;48.262;14.208;2024-03-25T01:27:19;97434.16;;;3.43;100.00
79481;BME280;68944;48.262;14.208;2024-03-25T01:29:45;97417.84;;;3.40;100.00
79481;BME280;68944;48.262;14.208;2024-03-25T01:32:10;97413.41;;;3.41;100.00
79481;BME280;68944;48.262;14.208;2024-03-25T01:34:36;97416.66;;;3.43;100.00
79481;BME280;68944;48.262;14.208;2024-03-25T01:37:01;97422.69;;;3.44;100.00
79481;BME280;68944;48.262;14.208;2024-03-25T01:39:27;97412.63;;;3.47;100.00
79481;BME280;68944;48.262;14.208;2024-03-25T01:41:52;97409.41;;;3.45;100.00
79481;BME280;68944;48.262;14.208;2024-03-25T01:44:18;97404.78;;;3.47;100.00
79481;BME280;68944;48.262;14.208;2024-03-25T01:46:44;97411.81;;;3.47;100.00
79481;BME280;68944;48.262;14.208;2024-03-25T01:49:10;97402.78;;;3.49;100.00
79481;BME280;68944;48.262;14.208;2024-03-25T01:51:37;97403.75;;;3.48;100.00
79481;BME280;68944;48.262;14.208;2024-03-25T01:54:04;97412.44;;;3.49;100.00
79481;BME280;68944;48.262;14.208;2024-03-25T01:56:33;97401.38;;;3.53;100.00
79481;BME280;68944;48.262;14.208;2024-03-25T01:58:59;97405.63;;;3.55;100.00
79481;BME280;68944;48.262;14.208;2024-03-25T02:01:26;97397.75;;;3.55;100.00
79481;BME280;68944;48.262;14.208;2024-03-25T02:03:54;97395.75;;;3.57;100.00
79481;BME280;68944;48.262;14.208;2024-03-25T02:06:21;97393.31;;;3.62;100.00
79481;BME280;68944;48.262;14.208;2024-03-25T02:08:48;97393.75;;;3.59;100.00
79481;BME280;68944;48.262;14.208;2024-03-25T02:11:14;97399.78;;;3.59;100.00
79481;BME280;68944;48.262;14.208;2024-03-25T02:13:40;97419.94;;;3.66;100.00
79481;BME280;68944;48.262;14.208;2024-03-25T02:16:06;97412.69;;;3.68;100.00
79481;BME280;68944;48.262;14.208;2024-03-25T02:18:33;97408.28;;;3.68;100.00
79481;BME280;68944;48.262;14.208;2024-03-25T02:20:59;97397.97;;;3.67;100.00
79481;BME280;68944;48.262;14.208;2024-03-25T02:23:26;97391.53;;;3.69;100.00
79481;BME280;68944;48.262;14.208;2024-03-25T02:25:55;97379.25;;;3.70;100.00
79481;BME280;68944;48.262;14.208;2024-03-25T02:28:21;97386.13;;;3.71;100.00
79481;BME280;68944;48.262;14.208;2024-03-25T02:30:47;97392.34;;;3.77;100.00
79481;BME280;68944;48.262;14.208;2024-03-25T02:33:13;97389.75;;;3.77;100.00
79481;BME280;68944;48.262;14.208;2024-03-25T02:35:40;97383.91;;;3.74;100.00
79481;BME280;68944;48.262;14.208;2024-03-25T02:38:06;97388.75;;;3.78;100.00
79481;BME280;68944;48.262;14.208;2024-03-25T02:40:33;97383.09;;;3.81;100.00
79481;BME280;68944;48.262;14.208;2024-03-25T02:42:59;97383.69;;;3.83;100.00
79481;BME280;68944;48.262;14.208;2024-03-25T02:45:25;97389.53;;;3.85;100.00
79481;BME280;68944;48.262;14.208;2024-03-25T02:47:51;97391.56;;;3.83;100.00
79481;BME280;68944;48.262;14.208;2024-03-25T02:50:17;97394.41;;;3.88;100.00
79481;BME280;68944;48.262;14.208;2024-03-25T02:52:42;97383.72;;;3.90;100.00
79481;BME280;68944;48.262;14.208;2024-03-25T02:55:08;97386.94;;;3.85;100.00
79481;BME280;68944;48.262;14.208;2024-03-25T02:57:33;97384.13;;;3.93;100.00
79481;BME280;68944;48.262;14.208;2024-03-25T02:59:59;97384.53;;;3.90;100.00
79481;BME280;68944;48.262;14.208;2024-03-25T03:02:25;97378.06;;;3.93;100.00
79481;BME280;68944;48.262;14.208;2024-03-25T03:04:50;97383.75;;;3.96;100.00
79481;BME280;68944;48.262;14.208;2024-03-25T03:07:16;97384.13;;;3.93;100.00
79481;BME280;68944;48.262;14.208;2024-03-25T03:09:42;97368.81;;;3.97;100.00
79481;BME280;68944;48.262;14.208;2024-03-25T03:12:08;97375.66;;;3.98;100.00
79481;BME280;68944;48.262;14.208;2024-03-25T03:14:33;97380.91;;;3.98;100.00
79481;BME280;68944;48.262;14.208;2024-03-25T03:16:59;97386.97;;;3.98;100.00
79481;BME280;68944;48.262;14.208;2024-03-25T03:19:25;97383.31;;;4.00;100.00
79481;BME280;68944;48.262;14.208;2024-03-25T03:21:53;97387.56;;;4.01;100.00
79481;BME280;68944;48.262;14.208;2024-03-25T03:24:19;97388.78;;;4.05;100.00
79481;BME280;68944;48.262;14.208;2024-03-25T03:26:45;97390.19;;;4.07;100.00
79481;BME280;68944;48.262;14.208;2024-03-25T03:29:11;97394.84;;;4.05;100.00
79481;BME280;68944;48.262;14.208;2024-03-25T03:31:37;97403.09;;;4.09;100.00
79481;BME280;68944;48.262;14.208;2024-03-25T03:34:02;97399.88;;;4.07;100.00
79481;BME280;68944;48.262;14.208;2024-03-25T03:36:28;97396.44;;;4.06;100.00
79481;BME280;68944;48.262;14.208;2024-03-25T03:38:54;97393.81;;;4.06;100.00
79481;BME280;68944;48.262;14.208;2024-03-25T03:41:20;97390.19;;;4.07;100.00
79481;BME280;68944;48.262;14.208;2024-03-25T03:43:46;97395.44;;;4.07;100.00
79481;BME280;68944;48.262;14.208;2024-03-25T03:46:12;97405.31;;;4.05;100.00
79481;BME280;68944;48.262;14.208;2024-03-25T03:48:39;97400.25;;;4.04;100.00
79481;BME280;68944;48.262;14.208;2024-03-25T03:51:05;97398.66;;;4.03;100.00
79481;BME280;68944;48.262;14.208;2024-03-25T03:53:32;97398.25;;;4.06;100.00
79481;BME280;68944;48.262;14.208;2024-03-25T03:56:00;97405.94;;;4.07;100.00
79481;BME280;68944;48.262;14.208;2024-03-25T03:58:27;97407.94;;;4.12;100.00
79481;BME280;68944;48.262;14.208;2024-03-25T04:00:53;97398.06;;;4.14;100.00
79481;BME280;68944;48.262;14.208;2024-03-25T04:03:19;97411.56;;;4.18;100.00
79481;BME280;68944;48.262;14.208;2024-03-25T04:05:44;97418.00;;;4.15;100.00
79481;BME280;68944;48.262;14.208;2024-03-25T04:08:10;97408.78;;;4.19;100.00
79481;BME280;68944;48.262;14.208;2024-03-25T04:10:36;97411.19;;;4.21;100.00
79481;BME280;68944;48.262;14.208;2024-03-25T04:13:03;97415.81;;;4.19;100.00
79481;BME280;68944;48.262;14.208;2024-03-25T04:15:29;97420.84;;;4.20;100.00
79481;BME280;68944;48.262;14.208;2024-03-25T04:17:57;97421.88;;;4.19;100.00
79481;BME280;68944;48.262;14.208;2024-03-25T04:20:23;97413.41;;;4.24;100.00
79481;BME280;68944;48.262;14.208;2024-03-25T04:22:49;97425.28;;;4.27;100.00
79481;BME280;68944;48.262;14.208;2024-03-25T04:25:14;97423.91;;;4.31;100.00
79481;BME280;68944;48.262;14.208;2024-03-25T04:27:41;97419.66;;;4.30;100.00
79481;BME280;68944;48.262;14.208;2024-03-25T04:30:07;97426.53;;;4.31;100.00
79481;BME280;68944;48.262;14.208;2024-03-25T04:32:34;97441.03;;;4.27;100.00
79481;BME280;68944;48.262;14.208;2024-03-25T04:35:00;97439.00;;;4.22;100.00
79481;BME280;68944;48.262;14.208;2024-03-25T04:37:26;97442.44;;;4.23;100.00
79481;BME280;68944;48.262;14.208;2024-03-25T04:39:53;97449.09;;;4.25;100.00
79481;BME280;68944;48.262;14.208;2024-03-25T04:42:19;97435.97;;;4.18;100.00
79481;BME280;68944;48.262;14.208;2024-03-25T04:44:45;97439.22;;;4.20;100.00
79481;BME280;68944;48.262;14.208;2024-03-25T04:47:11;97444.84;;;4.17;100.00
79481;BME280;68944;48.262;14.208;2024-03-25T04:49:36;97446.06;;;4.15;100.00
79481;BME280;68944;48.262;14.208;2024-03-25T04:52:04;97453.34;;;4.13;100.00
79481;BME280;68944;48.262;14.208;2024-03-25T04:54:29;97451.50;;;4.20;100.00
79481;BME280;68944;48.262;14.208;2024-03-25T04:56:55;97454.78;;;4.29;100.00
79481;BME280;68944;48.262;14.208;2024-03-25T04:59:21;97445.50;;;4.33;100.00
79481;BME280;68944;48.262;14.208;2024-03-25T05:01:47;97447.09;;;4.34;100.00
79481;BME280;68944;48.262;14.208;2024-03-25T05:04:13;97452.94;;;4.36;100.00
79481;BME280;68944;48.262;14.208;2024-03-25T05:06:39;97456.16;;;4.38;100.00
79481;BME280;68944;48.262;14.208;2024-03-25T05:09:06;97462.44;;;4.37;100.00
79481;BME280;68944;48.262;14.208;2024-03-25T05:11:32;97460.81;;;4.36;100.00
79481;BME280;68944;48.262;14.208;2024-03-25T05:13:59;97462.44;;;4.37;100.00
79481;BME280;68944;48.262;14.208;2024-03-25T05:16:25;97461.41;;;4.38;100.00
79481;BME280;68944;48.262;14.208;2024-03-25T05:18:50;97463.25;;;4.44;100.00
79481;BME280;68944;48.262;14.208;2024-03-25T05:21:16;97454.16;;;4.40;100.00
79481;BME280;68944;48.262;14.208;2024-03-25T05:23:41;97467.47;;;4.39;100.00
79481;BME280;68944;48.262;14.208;2024-03-25T05:26:07;97462.22;;;4.39;100.00
79481;BME280;68944;48.262;14.208;2024-03-25T05:28:33;97466.84;;;4.37;100.00
79481;BME280;68944;48.262;14.208;2024-03-25T05:31:08;97472.09;;;4.37;100.00
79481;BME280;68944;48.262;14.208;2024-03-25T05:33:34;97466.88;;;4.43;100.00
79481;BME280;68944;48.262;14.208;2024-03-25T05:36:00;97479.59;;;4.40;100.00
79481;BME280;68944;48.262;14.208;2024-03-25T05:38:29;97481.59;;;4.38;100.00
79481;BME280;68944;48.262;14.208;2024-03-25T05:40:55;97483.03;;;4.40;100.00
79481;BME280;68944;48.262;14.208;2024-03-25T05:43:22;97483.19;;;4.39;100.00
79481;BME280;68944;48.262;14.208;2024-03-25T05:45:54;97484.63;;;4.41;100.00
79481;BME280;68944;48.262;14.208;2024-03-25T05:48:20;97490.69;;;4.42;100.00
79481;BME280;68944;48.262;14.208;2024-03-25T05:50:45;97486.63;;;4.39;100.00
79481;BME280;68944;48.262;14.208;2024-03-25T05:53:11;97490.47;;;4.43;100.00
79481;BME280;68944;48.262;14.208;2024-03-25T05:55:37;97499.53;;;4.41;100.00
79481;BME280;68944;48.262;14.208;2024-03-25T05:58:02;97502.78;;;4.43;100.00
79481;BME280;68944;48.262;14.208;2024-03-25T06:00:29;97494.50;;;4.46;100.00
79481;BME280;68944;48.262;14.208;2024-03-25T06:02:56;97495.94;;;4.49;100.00
79481;BME280;68944;48.262;14.208;2024-03-25T06:05:21;97501.19;;;4.55;100.00
79481;BME280;68944;48.262;14.208;2024-03-25T06:07:47;97514.09;;;4.57;100.00
79481;BME280;68944;48.262;14.208;2024-03-25T06:10:13;97506.63;;;4.54;100.00
79481;BME280;68944;48.262;14.208;2024-03-25T06:12:39;97508.66;;;4.52;100.00
79481;BME280;68944;48.262;14.208;2024-03-25T06:15:04;97513.50;;;4.55;100.00
79481;BME280;68944;48.262;14.208;2024-03-25T06:17:30;97527.81;;;4.59;100.00
79481;BME280;68944;48.262;14.208;2024-03-25T06:19:56;97517.31;;;4.59;100.00
79481;BME280;68944;48.262;14.208;2024-03-25T06:22:21;97515.72;;;4.58;100.00
79481;BME280;68944;48.262;14.208;2024-03-25T06:24:47;97523.38;;;4.60;100.00
79481;BME280;68944;48.262;14.208;2024-03-25T06:27:15;97525.41;;;4.64;100.00
79481;BME280;68944;48.262;14.208;2024-03-25T06:29:40;97529.66;;;4.65;100.00
79481;BME280;68944;48.262;14.208;2024-03-25T06:32:06;97538.75;;;4.70;100.00
79481;BME280;68944;48.262;14.208;2024-03-25T06:34:50;97544.59;;;4.72;100.00
79481;BME280;68944;48.262;14.208;2024-03-25T06:37:16;97546.22;;;4.73;100.00
79481;BME280;68944;48.262;14.208;2024-03-25T06:39:41;97545.19;;;4.74;100.00
79481;BME280;68944;48.262;14.208;2024-03-25T06:42:07;97529.06;;;4.77;100.00
79481;BME280;68944;48.262;14.208;2024-03-25T06:44:33;97543.19;;;4.76;100.00
79481;BME280;68944;48.262;14.208;2024-03-25T06:46:58;97541.38;;;4.83;100.00
79481;BME280;68944;48.262;14.208;2024-03-25T06:49:24;97544.38;;;4.80;100.00
79481;BME280;68944;48.262;14.208;2024-03-25T06:51:49;97549.63;;;4.80;100.00
79481;BME280;68944;48.262;14.208;2024-03-25T06:54:15;97544.81;;;4.91;100.00
79481;BME280;68944;48.262;14.208;2024-03-25T06:56:40;97560.56;;;4.91;100.00
79481;BME280;68944;48.262;14.208;2024-03-25T06:59:06;97544.59;;;4.92;100.00
79481;BME280;68944;48.262;14.208;2024-03-25T07:01:32;97553.50;;;4.98;100.00
79481;BME280;68944;48.262;14.208;2024-03-25T07:03:58;97540.75;;;4.95;100.00
79481;BME280;68944;48.262;14.208;2024-03-25T07:06:24;97554.50;;;4.97;100.00
79481;BME280;68944;48.262;14.208;2024-03-25T07:08:50;97552.28;;;5.00;100.00
79481;BME280;68944;48.262;14.208;2024-03-25T07:11:16;97556.31;;;5.03;100.00
79481;BME280;68944;48.262;14.208;2024-03-25T07:13:42;97557.31;;;5.16;100.00
79481;BME280;68944;48.262;14.208;2024-03-25T07:16:08;97556.50;;;5.22;100.00
79481;BME280;68944;48.262;14.208;2024-03-25T07:18:33;97559.72;;;5.24;100.00
79481;BME280;68944;48.262;14.208;2024-03-25T07:20:59;97556.91;;;5.19;100.00
79481;BME280;68944;48.262;14.208;2024-03-25T07:23:25;97554.06;;;5.27;100.00
79481;BME280;68944;48.262;14.208;2024-03-25T07:25:50;97554.06;;;5.34;100.00
79481;BME280;68944;48.262;14.208;2024-03-25T07:28:16;97558.13;;;5.30;100.00
79481;BME280;68944;48.262;14.208;2024-03-25T07:30:42;97570.84;;;5.33;100.00
79481;BME280;68944;48.262;14.208;2024-03-25T07:33:07;97562.97;;;5.40;100.00
79481;BME280;68944;48.262;14.208;2024-03-25T07:35:33;97573.03;;;5.43;100.00
79481;BME280;68944;48.262;14.208;2024-03-25T07:37:59;97571.44;;;5.42;100.00
79481;BME280;68944;48.262;14.208;2024-03-25T07:40:24;97555.25;;;5.38;100.00
79481;BME280;68944;48.262;14.208;2024-03-25T07:42:50;97566.56;;;5.52;100.00
79481;BME280;68944;48.262;14.208;2024-03-25T07:45:16;97565.56;;;5.53;100.00
79481;BME280;68944;48.262;14.208;2024-03-25T07:47:43;97564.97;;;5.51;100.00
79481;BME280;68944;48.262;14.208;2024-03-25T07:50:09;97564.13;;;5.57;100.00
79481;BME280;68944;48.262;14.208;2024-03-25T07:52:34;97576.47;;;5.50;100.00
79481;BME280;68944;48.262;14.208;2024-03-25T07:55:06;97583.13;;;5.60;100.00
79481;BME280;68944;48.262;14.208;2024-03-25T07:57:32;97567.97;;;5.62;100.00
79481;BME280;68944;48.262;14.208;2024-03-25T07:59:57;97567.38;;;5.53;100.00
79481;BME280;68944;48.262;14.208;2024-03-25T08:02:23;97585.16;;;5.51;100.00
79481;BME280;68944;48.262;14.208;2024-03-25T08:04:49;97592.44;;;5.55;100.00
79481;BME280;68944;48.262;14.208;2024-03-25T08:07:15;97582.53;;;5.57;100.00
79481;BME280;68944;48.262;14.208;2024-03-25T08:09:40;97592.66;;;5.54;100.00
79481;BME280;68944;48.262;14.208;2024-03-25T08:12:06;97596.28;;;5.53;100.00
79481;BME280;68944;48.262;14.208;2024-03-25T08:14:32;97598.53;;;5.42;100.00
79481;BME280;68944;48.262;14.208;2024-03-25T08:16:57;97609.81;;;5.43;100.00
79481;BME280;68944;48.262;14.208;2024-03-25T08:19:23;97628.44;;;5.41;100.00
79481;BME280;68944;48.262;14.208;2024-03-25T08:21:48;97599.31;;;5.43;100.00
79481;BME280;68944;48.262;14.208;2024-03-25T08:24:15;97606.59;;;5.47;100.00
79481;BME280;68944;48.262;14.208;2024-03-25T08:26:41;97609.03;;;5.42;100.00
79481;BME280;68944;48.262;14.208;2024-03-25T08:29:06;97602.34;;;5.53;100.00
79481;BME280;68944;48.262;14.208;2024-03-25T08:31:32;97590.59;;;5.63;100.00
79481;BME280;68944;48.262;14.208;2024-03-25T08:33:58;97602.72;;;5.57;100.00
79481;BME280;68944;48.262;14.208;2024-03-25T08:36:24;97611.22;;;5.66;100.00
79481;BME280;68944;48.262;14.208;2024-03-25T08:38:49;97608.59;;;5.59;100.00
79481;BME280;68944;48.262;14.208;2024-03-25T08:41:15;97605.31;;;5.77;100.00
79481;BME280;68944;48.262;14.208;2024-03-25T08:43:40;97599.25;;;5.84;100.00
79481;BME280;68944;48.262;14.208;2024-03-25T08:46:06;97598.03;;;5.93;100.00
79481;BME280;68944;48.262;14.208;2024-03-25T08:48:31;97596.75;;;6.16;100.00
79481;BME280;68944;48.262;14.208;2024-03-25T08:50:57;97597.97;;;6.13;100.00
79481;BME280;68944;48.262;14.208;2024-03-25T08:53:23;97582.59;;;6.03;100.00
79481;BME280;68944;48.262;14.208;2024-03-25T08:55:49;97594.78;;;5.98;100.00
79481;BME280;68944;48.262;14.208;2024-03-25T08:58:15;97593.34;;;5.95;100.00
79481;BME280;68944;48.262;14.208;2024-03-25T09:00:41;97598.38;;;6.10;100.00
79481;BME280;68944;48.262;14.208;2024-03-25T09:03:08;97585.41;;;6.16;100.00
79481;BME280;68944;48.262;14.208;2024-03-25T09:05:34;97597.09;;;6.26;100.00
79481;BME280;68944;48.262;14.208;2024-03-25T09:08:00;97588.94;;;6.42;100.00
79481;BME280;68944;48.262;14.208;2024-03-25T09:10:26;97591.78;;;6.40;100.00
79481;BME280;68944;48.262;14.208;2024-03-25T09:13:10;97590.59;;;6.36;100.00
79481;BME280;68944;48.262;14.208;2024-03-25T09:15:36;97585.75;;;6.26;100.00
79481;BME280;68944;48.262;14.208;2024-03-25T09:18:02;97580.78;;;6.50;100.00
79481;BME280;68944;48.262;14.208;2024-03-25T09:20:28;97591.31;;;6.50;100.00
79481;BME280;68944;48.262;14.208;2024-03-25T09:22:53;97597.78;;;6.54;100.00
79481;BME280;68944;48.262;14.208;2024-03-25T09:25:19;97604.44;;;6.57;100.00
79481;BME280;68944;48.262;14.208;2024-03-25T09:27:49;97601.13;;;6.68;100.00
79481;BME280;68944;48.262;14.208;2024-03-25T09:30:15;97598.84;;;6.79;100.00
79481;BME280;68944;48.262;14.208;2024-03-25T09:32:41;97594.19;;;6.81;100.00
79481;BME280;68944;48.262;14.208;2024-03-25T09:35:08;97598.06;;;6.78;100.00
79481;BME280;68944;48.262;14.208;2024-03-25T09:37:36;97606.63;;;6.67;100.00
79481;BME280;68944;48.262;14.208;2024-03-25T09:40:02;97604.97;;;6.72;100.00
79481;BME280;68944;48.262;14.208;2024-03-25T09:42:33;97613.06;;;6.71;100.00
79481;BME280;68944;48.262;14.208;2024-03-25T09:44:59;97608.03;;;6.69;100.00
79481;BME280;68944;48.262;14.208;2024-03-25T09:47:25;97600.72;;;6.71;100.00
79481;BME280;68944;48.262;14.208;2024-03-25T09:49:54;97603.72;;;6.75;100.00
79481;BME280;68944;48.262;14.208;2024-03-25T09:52:20;97602.19;;;6.67;100.00
79481;BME280;68944;48.262;14.208;2024-03-25T09:54:46;97600.91;;;6.77;100.00
79481;BME280;68944;48.262;14.208;2024-03-25T09:57:12;97595.25;;;6.73;100.00
79481;BME280;68944;48.262;14.208;2024-03-25T09:59:39;97602.09;;;6.81;100.00
79481;BME280;68944;48.262;14.208;2024-03-25T10:02:05;97597.50;;;7.02;100.00
79481;BME280;68944;48.262;14.208;2024-03-25T10:04:32;97589.53;;;7.09;100.00
79481;BME280;68944;48.262;14.208;2024-03-25T10:06:59;97601.19;;;7.20;100.00
79481;BME280;68944;48.262;14.208;2024-03-25T10:09:24;97599.59;;;7.19;100.00
79481;BME280;68944;48.262;14.208;2024-03-25T10:11:51;97597.59;;;7.58;100.00
79481;BME280;68944;48.262;14.208;2024-03-25T10:14:17;97587.66;;;7.60;100.00
79481;BME280;68944;48.262;14.208;2024-03-25T10:16:43;97570.50;;;7.70;100.00
79481;BME280;68944;48.262;14.208;2024-03-25T10:19:09;97584.09;;;8.11;100.00
79481;BME280;68944;48.262;14.208;2024-03-25T10:21:35;97579.72;;;8.17;100.00
79481;BME280;68944;48.262;14.208;2024-03-25T10:24:04;97575.66;;;7.83;100.00
79481;BME280;68944;48.262;14.208;2024-03-25T10:26:33;97576.16;;;7.55;100.00
79481;BME280;68944;48.262;14.208;2024-03-25T10:29:06;97583.31;;;7.47;100.00
79481;BME280;68944;48.262;14.208;2024-03-25T10:31:33;97576.09;;;7.80;100.00
79481;BME280;68944;48.262;14.208;2024-03-25T10:33:59;97588.44;;;7.61;100.00
79481;BME280;68944;48.262;14.208;2024-03-25T10:36:25;97574.03;;;7.82;100.00
79481;BME280;68944;48.262;14.208;2024-03-25T10:39:02;97570.91;;;7.73;100.00
79481;BME280;68944;48.262;14.208;2024-03-25T10:41:34;97569.34;;;8.03;100.00
79481;BME280;68944;48.262;14.208;2024-03-25T10:44:06;97572.72;;;7.92;100.00
79481;BME280;68944;48.262;14.208;2024-03-25T10:46:34;97565.97;;;8.15;100.00
79481;BME280;68944;48.262;14.208;2024-03-25T10:49:08;97565.66;;;8.23;100.00
79481;BME280;68944;48.262;14.208;2024-03-25T10:51:38;97560.13;;;8.56;100.00
79481;BME280;68944;48.262;14.208;2024-03-25T10:54:05;97556.22;;;8.46;100.00
79481;BME280;68944;48.262;14.208;2024-03-25T10:56:31;97561.50;;;8.77;100.00
79481;BME280;68944;48.262;14.208;2024-03-25T10:58:57;97560.25;;;8.80;100.00
79481;BME280;68944;48.262;14.208;2024-03-25T11:01:24;97555.00;;;9.04;100.00
79481;BME280;68944;48.262;14.208;2024-03-25T11:03:50;97544.66;;;9.38;100.00
79481;BME280;68944;48.262;14.208;2024-03-25T11:06:16;97541.19;;;9.14;100.00
79481;BME280;68944;48.262;14.208;2024-03-25T11:08:44;97549.09;;;8.78;100.00
79481;BME280;68944;48.262;14.208;2024-03-25T11:11:13;97550.72;;;8.91;100.00
79481;BME280;68944;48.262;14.208;2024-03-25T11:13:39;97540.19;;;9.15;100.00
79481;BME280;68944;48.262;14.208;2024-03-25T11:16:06;97541.00;;;9.15;100.00
79481;BME280;68944;48.262;14.208;2024-03-25T11:18:32;97541.09;;;8.96;100.00
79481;BME280;68944;48.262;14.208;2024-03-25T11:21:08;97555.22;;;8.90;100.00
79481;BME280;68944;48.262;14.208;2024-03-25T11:23:43;97544.31;;;9.10;100.00
79481;BME280;68944;48.262;14.208;2024-03-25T11:28:44;97529.81;;;8.89;100.00
79481;BME280;68944;48.262;14.208;2024-03-25T11:31:10;97534.41;;;8.39;100.00
79481;BME280;68944;48.262;14.208;2024-03-25T11:33:38;97526.97;;;8.17;100.00
79481;BME280;68944;48.262;14.208;2024-03-25T11:36:09;97521.78;;;8.10;100.00
79481;BME280;68944;48.262;14.208;2024-03-25T11:38:34;97524.13;;;8.30;100.00
79481;BME280;68944;48.262;14.208;2024-03-25T11:41:02;97517.84;;;8.31;100.00
79481;BME280;68944;48.262;14.208;2024-03-25T11:43:27;97515.78;;;8.34;100.00
79481;BME280;68944;48.262;14.208;2024-03-25T11:45:53;97517.91;;;8.56;100.00
79481;BME280;68944;48.262;14.208;2024-03-25T11:48:19;97517.31;;;8.96;100.00
79481;BME280;68944;48.262;14.208;2024-03-25T11:50:46;97510.88;;;9.28;100.00
79481;BME280;68944;48.262;14.208;2024-03-25T11:53:16;97500.72;;;9.61;100.00
79481;BME280;68944;48.262;14.208;2024-03-25T11:55:46;97499.31;;;9.71;100.00
79481;BME280;68944;48.262;14.208;2024-03-25T11:58:14;97504.00;;;9.81;100.00
79481;BME280;68944;48.262;14.208;2024-03-25T12:00:46;97490.91;;;10.32;100.00
79481;BME280;68944;48.262;14.208;2024-03-25T12:03:16;97494.47;;;9.79;100.00
79481;BME280;68944;48.262;14.208;2024-03-25T12:05:44;97490.31;;;9.72;100.00
79481;BME280;68944;48.262;14.208;2024-03-25T12:08:10;97477.78;;;9.79;100.00
79481;BME280;68944;48.262;14.208;2024-03-25T12:10:37;97480.81;;;10.29;100.00
79481;BME280;68944;48.262;14.208;2024-03-25T12:13:23;97485.44;;;9.93;100.00
79481;BME280;68944;48.262;14.208;2024-03-25T12:15:53;97488.13;;;9.15;100.00
79481;BME280;68944;48.262;14.208;2024-03-25T12:18:19;97475.94;;;8.66;100.00
79481;BME280;68944;48.262;14.208;2024-03-25T12:20:46;97473.31;;;8.66;100.00
79481;BME280;68944;48.262;14.208;2024-03-25T12:23:11;97471.94;;;9.12;100.00
79481;BME280;68944;48.262;14.208;2024-03-25T12:25:37;97463.66;;;9.32;100.00
79481;BME280;68944;48.262;14.208;2024-03-25T12:28:10;97463.16;;;9.35;100.00
79481;BME280;68944;48.262;14.208;2024-03-25T12:30:50;97461.19;;;9.42;100.00
79481;BME280;68944;48.262;14.208;2024-03-25T12:33:16;97460.91;;;9.15;100.00
79481;BME280;68944;48.262;14.208;2024-03-25T12:35:45;97456.44;;;8.91;100.00
79481;BME280;68944;48.262;14.208;2024-03-25T12:38:22;97448.97;;;9.00;100.00
79481;BME280;68944;48.262;14.208;2024-03-25T12:40:47;97453.66;;;8.98;100.00
79481;BME280;68944;48.262;14.208;2024-03-25T12:43:16;97456.31;;;8.98;100.00
79481;BME280;68944;48.262;14.208;2024-03-25T12:45:42;97451.72;;;9.71;100.00
79481;BME280;68944;48.262;14.208;2024-03-25T12:48:09;97446.72;;;10.67;100.00
79481;BME280;68944;48.262;14.208;2024-03-25T12:50:34;97445.91;;;10.50;96.97